Bainbridge, New York
Current Conditions -  °F | °C
As of 7:53 PM on Tuesday 27 Jan 2015 (Local Time) from KBGM Reporting Station
Clear Clear  
Wind Chill: -10°   Ceiling: Unl
Heat Index:   Visibility: 10mi
Dew Point: -1°   Wind: 17mph
Humidity: 67%   Direction: 340°NNW
Pressure: 29.83"   Gusts: 29mph
Location:  42.29°N, 75.48°W
Report Text: KBGM 280053Z 34015G25KT 10SM CLR M13/M18 A2983 RMK AO2 SLP134 T11331183
Loading
Personal Weather Stations






























Interactive Weather Map New forecast layout! Learn more

10-Day Weather Forecast

Advertisements
Track Severe Weather on mobile